Terminal Aerodrome Forecast
Issued by NWS La Crosse, WI

Home | Current Version | Previous Version | Text Only | Print | Product List | Glossary On
Versions: 1 2 3 4 5 6 7 8 9 10 11 12 13 14 15 16 17 18 19 20 21 22 23 24 25 26 27
000
FTUS43 KARX 241128
TAFLSE
TAF
KLSE 241128Z 2412/2512 12003KT P6SM FEW020
     FM241800 18007KT P6SM SCT050
     FM250500 16006KT P6SM -SHRA BKN110
     FM250900 16007KT P6SM TSRA BKN045CB=

USA.gov is the U.S. government's official web portal to all federal, state and local government web resources and services.